Deadhorse Airport
PASC : now visible

Airfield :











YOU CAN JOIN US ON...

 
LOGIN :

Register | Disclaimer

   EN    FR    IT 

 









Legend :    VFR   Marginal VFR   IFR   Intensive IFR   Very Intensive IFR
Visi :
Ceiling :
>= 8 km
>= 3000ft
5 to 8 km
1000 to 3000 ft
1500m to 5 km
500 to 1000 ft
800 to 1500m
200 to 500 ft
< 800m
< 200 ft
Symbols :   Thunderstorms  Fog  Heavy snow  Heavy precipitations  Wind > 20 kt






- Airport Elevation : 65 ft
- IATA code : SCC


PASC - Deadhorse

CURRENT METAR :
  • 301553Z 23014KT 9SM -SN FEW018 OVC050 M07/M09 A2976 RMK AO2 SNB20 SLP079 P0000 T10721094

EXPIRED METARs :
  • 301453Z 22014KT 10SM OVC055 M07/M09 A2977 RMK AO2 SNB12E21 SLP082 P0000 60000 T10721094 56010
  • 301353Z 22013KT 10SM OVC043 M07/M09 A2978 RMK AO2 SNB02E11 SLP085 P0000 T10671089

TAF PASC
Valid from the 30 at 12:00 until the 31 at 12:00 UTC


301126Z 3012/3112 22015KT 6SM -SHSN OVC040
FM301500 20011KT 5SM -SN BKN025
PAZA FIR / North America



MET'MAP, your aeronautical weather chart ! - Copyright ORBIFLY December 2007 - Disclaimer

ORBIFLY MET'MAP TEAM :

Programming & Development : Alexandra Zaïnal
Concept & original design : Baudouin d'Aumeries
Assistance for programming : Marc-Olivier Méhu
Technical & hardware support : Manuel Goepfert

Contact : metmap@orbifly.com




SOURCES & CREDITS :

   NOAA       Earth
Advisory